sensor_id;sensor_type;location;lat;lon;timestamp;P1;durP1;ratioP1;P2;durP2;ratioP2
53040;SDS011;39326;42.650;23.248;2023-02-13T00:02:14;37.13;;;28.27;;
53040;SDS011;39326;42.650;23.248;2023-02-13T00:04:40;41.17;;;29.97;;
53040;SDS011;39326;42.650;23.248;2023-02-13T00:07:09;39.07;;;29.60;;
53040;SDS011;39326;42.650;23.248;2023-02-13T00:09:36;42.07;;;31.17;;
53040;SDS011;39326;42.650;23.248;2023-02-13T00:12:02;39.20;;;29.70;;
53040;SDS011;39326;42.650;23.248;2023-02-13T00:14:29;39.77;;;31.27;;
53040;SDS011;39326;42.650;23.248;2023-02-13T00:16:55;43.37;;;32.00;;
53040;SDS011;39326;42.650;23.248;2023-02-13T00:19:21;41.30;;;30.60;;
53040;SDS011;39326;42.650;23.248;2023-02-13T00:21:47;43.40;;;32.67;;
53040;SDS011;39326;42.650;23.248;2023-02-13T00:24:13;41.33;;;30.33;;
53040;SDS011;39326;42.650;23.248;2023-02-13T00:26:39;40.10;;;30.37;;
53040;SDS011;39326;42.650;23.248;2023-02-13T00:29:05;37.40;;;29.20;;
53040;SDS011;39326;42.650;23.248;2023-02-13T00:31:31;35.30;;;27.87;;
53040;SDS011;39326;42.650;23.248;2023-02-13T00:33:57;40.13;;;31.03;;
53040;SDS011;39326;42.650;23.248;2023-02-13T00:36:22;37.00;;;30.03;;
53040;SDS011;39326;42.650;23.248;2023-02-13T00:38:49;38.13;;;27.80;;
53040;SDS011;39326;42.650;23.248;2023-02-13T00:41:15;37.20;;;28.87;;
53040;SDS011;39326;42.650;23.248;2023-02-13T00:43:41;36.57;;;29.43;;
53040;SDS011;39326;42.650;23.248;2023-02-13T00:46:08;38.17;;;29.10;;
53040;SDS011;39326;42.650;23.248;2023-02-13T00:48:34;39.23;;;29.33;;
53040;SDS011;39326;42.650;23.248;2023-02-13T00:51:00;38.27;;;28.53;;
53040;SDS011;39326;42.650;23.248;2023-02-13T00:53:27;41.03;;;30.20;;
53040;SDS011;39326;42.650;23.248;2023-02-13T00:55:54;37.80;;;30.67;;
53040;SDS011;39326;42.650;23.248;2023-02-13T00:58:20;37.17;;;30.10;;
53040;SDS011;39326;42.650;23.248;2023-02-13T01:00:46;41.67;;;30.80;;
53040;SDS011;39326;42.650;23.248;2023-02-13T01:03:15;41.27;;;31.67;;
53040;SDS011;39326;42.650;23.248;2023-02-13T01:05:41;41.70;;;31.53;;
53040;SDS011;39326;42.650;23.248;2023-02-13T01:08:08;38.80;;;27.83;;
53040;SDS011;39326;42.650;23.248;2023-02-13T01:10:36;36.30;;;27.80;;
53040;SDS011;39326;42.650;23.248;2023-02-13T01:13:02;38.40;;;28.63;;
53040;SDS011;39326;42.650;23.248;2023-02-13T01:15:28;38.97;;;29.10;;
53040;SDS011;39326;42.650;23.248;2023-02-13T01:17:54;35.97;;;28.20;;
53040;SDS011;39326;42.650;23.248;2023-02-13T01:20:21;38.87;;;28.97;;
53040;SDS011;39326;42.650;23.248;2023-02-13T01:22:48;37.47;;;28.53;;
53040;SDS011;39326;42.650;23.248;2023-02-13T01:25:14;39.37;;;29.17;;
53040;SDS011;39326;42.650;23.248;2023-02-13T01:27:40;34.97;;;26.77;;
53040;SDS011;39326;42.650;23.248;2023-02-13T01:30:06;37.90;;;28.67;;
53040;SDS011;39326;42.650;23.248;2023-02-13T01:32:36;36.90;;;28.67;;
53040;SDS011;39326;42.650;23.248;2023-02-13T01:35:02;40.37;;;29.77;;
53040;SDS011;39326;42.650;23.248;2023-02-13T01:37:28;42.27;;;31.37;;
53040;SDS011;39326;42.650;23.248;2023-02-13T01:39:54;43.17;;;30.70;;
53040;SDS011;39326;42.650;23.248;2023-02-13T01:42:24;38.10;;;29.50;;
53040;SDS011;39326;42.650;23.248;2023-02-13T01:44:55;40.70;;;30.33;;
53040;SDS011;39326;42.650;23.248;2023-02-13T01:49:58;42.83;;;31.07;;
53040;SDS011;39326;42.650;23.248;2023-02-13T01:52:30;42.20;;;29.77;;
53040;SDS011;39326;42.650;23.248;2023-02-13T01:54:57;41.10;;;29.80;;
53040;SDS011;39326;42.650;23.248;2023-02-13T01:57:23;44.87;;;31.73;;
53040;SDS011;39326;42.650;23.248;2023-02-13T01:59:55;42.17;;;29.77;;
53040;SDS011;39326;42.650;23.248;2023-02-13T02:02:26;43.13;;;32.00;;
53040;SDS011;39326;42.650;23.248;2023-02-13T02:04:54;49.27;;;35.33;;
53040;SDS011;39326;42.650;23.248;2023-02-13T02:07:20;47.17;;;33.00;;
53040;SDS011;39326;42.650;23.248;2023-02-13T02:09:52;52.33;;;34.80;;
53040;SDS011;39326;42.650;23.248;2023-02-13T02:12:25;42.33;;;33.23;;
53040;SDS011;39326;42.650;23.248;2023-02-13T02:14:55;46.97;;;33.80;;
53040;SDS011;39326;42.650;23.248;2023-02-13T02:17:24;46.00;;;32.50;;
53040;SDS011;39326;42.650;23.248;2023-02-13T02:23:00;43.80;;;32.47;;
53040;SDS011;39326;42.650;23.248;2023-02-13T02:48:37;42.50;;;33.23;;
53040;SDS011;39326;42.650;23.248;2023-02-13T02:54:01;43.33;;;31.43;;
53040;SDS011;39326;42.650;23.248;2023-02-13T02:56:51;41.50;;;31.43;;
53040;SDS011;39326;42.650;23.248;2023-02-13T02:59:21;45.43;;;31.93;;
53040;SDS011;39326;42.650;23.248;2023-02-13T03:02:11;46.60;;;32.57;;
53040;SDS011;39326;42.650;23.248;2023-02-13T03:04:57;41.27;;;30.77;;
53040;SDS011;39326;42.650;23.248;2023-02-13T03:07:43;43.87;;;31.17;;
53040;SDS011;39326;42.650;23.248;2023-02-13T03:10:11;42.43;;;31.83;;
53040;SDS011;39326;42.650;23.248;2023-02-13T03:13:02;41.33;;;30.67;;
53040;SDS011;39326;42.650;23.248;2023-02-13T03:16:01;42.20;;;30.30;;
53040;SDS011;39326;42.650;23.248;2023-02-13T03:18:46;42.53;;;31.83;;
53040;SDS011;39326;42.650;23.248;2023-02-13T03:21:40;45.80;;;32.30;;
53040;SDS011;39326;42.650;23.248;2023-02-13T03:24:33;45.10;;;33.73;;
53040;SDS011;39326;42.650;23.248;2023-02-13T03:27:08;43.83;;;31.80;;
53040;SDS011;39326;42.650;23.248;2023-02-13T03:32:46;43.37;;;32.17;;
53040;SDS011;39326;42.650;23.248;2023-02-13T03:41:06;43.97;;;32.27;;
53040;SDS011;39326;42.650;23.248;2023-02-13T03:43:56;45.87;;;33.53;;
53040;SDS011;39326;42.650;23.248;2023-02-13T03:46:24;44.47;;;32.47;;
53040;SDS011;39326;42.650;23.248;2023-02-13T03:48:53;41.80;;;30.53;;
53040;SDS011;39326;42.650;23.248;2023-02-13T03:51:42;40.60;;;30.93;;
53040;SDS011;39326;42.650;23.248;2023-02-13T03:56:41;41.87;;;31.93;;
53040;SDS011;39326;42.650;23.248;2023-02-13T03:59:28;42.37;;;30.90;;
53040;SDS011;39326;42.650;23.248;2023-02-13T04:02:07;43.40;;;31.13;;
53040;SDS011;39326;42.650;23.248;2023-02-13T04:07:23;43.30;;;30.80;;
53040;SDS011;39326;42.650;23.248;2023-02-13T04:09:59;43.27;;;30.90;;
53040;SDS011;39326;42.650;23.248;2023-02-13T04:15:18;39.23;;;29.17;;
53040;SDS011;39326;42.650;23.248;2023-02-13T04:17:58;42.60;;;30.47;;
53040;SDS011;39326;42.650;23.248;2023-02-13T04:20:37;45.00;;;32.90;;
53040;SDS011;39326;42.650;23.248;2023-02-13T04:23:05;40.60;;;30.57;;
53040;SDS011;39326;42.650;23.248;2023-02-13T04:25:32;42.07;;;29.47;;
53040;SDS011;39326;42.650;23.248;2023-02-13T04:28:00;38.83;;;28.73;;
53040;SDS011;39326;42.650;23.248;2023-02-13T04:30:25;41.13;;;31.67;;
53040;SDS011;39326;42.650;23.248;2023-02-13T04:32:51;43.93;;;32.40;;
53040;SDS011;39326;42.650;23.248;2023-02-13T04:35:17;43.93;;;33.33;;
53040;SDS011;39326;42.650;23.248;2023-02-13T04:37:43;44.93;;;31.83;;
53040;SDS011;39326;42.650;23.248;2023-02-13T04:40:09;42.90;;;31.73;;
53040;SDS011;39326;42.650;23.248;2023-02-13T04:42:35;39.50;;;32.63;;
53040;SDS011;39326;42.650;23.248;2023-02-13T04:45:01;46.57;;;31.40;;
53040;SDS011;39326;42.650;23.248;2023-02-13T04:47:27;47.53;;;34.43;;
53040;SDS011;39326;42.650;23.248;2023-02-13T04:49:52;46.10;;;34.00;;
53040;SDS011;39326;42.650;23.248;2023-02-13T04:52:19;40.23;;;30.17;;
53040;SDS011;39326;42.650;23.248;2023-02-13T04:54:45;41.47;;;31.53;;
53040;SDS011;39326;42.650;23.248;2023-02-13T04:57:11;40.07;;;28.60;;
53040;SDS011;39326;42.650;23.248;2023-02-13T04:59:37;42.63;;;31.70;;
53040;SDS011;39326;42.650;23.248;2023-02-13T05:02:02;43.90;;;32.30;;
53040;SDS011;39326;42.650;23.248;2023-02-13T05:04:28;42.53;;;31.07;;
53040;SDS011;39326;42.650;23.248;2023-02-13T05:06:54;38.13;;;28.60;;
53040;SDS011;39326;42.650;23.248;2023-02-13T05:09:20;44.40;;;32.27;;
53040;SDS011;39326;42.650;23.248;2023-02-13T05:11:46;40.93;;;29.40;;
53040;SDS011;39326;42.650;23.248;2023-02-13T05:14:12;39.90;;;28.63;;
53040;SDS011;39326;42.650;23.248;2023-02-13T05:16:38;39.77;;;29.63;;
53040;SDS011;39326;42.650;23.248;2023-02-13T05:19:04;36.87;;;28.20;;
53040;SDS011;39326;42.650;23.248;2023-02-13T05:21:29;38.93;;;28.83;;
53040;SDS011;39326;42.650;23.248;2023-02-13T05:24:13;38.67;;;27.53;;
53040;SDS011;39326;42.650;23.248;2023-02-13T05:26:39;42.73;;;32.23;;
53040;SDS011;39326;42.650;23.248;2023-02-13T05:29:05;41.23;;;30.83;;
53040;SDS011;39326;42.650;23.248;2023-02-13T05:31:46;40.80;;;31.27;;
53040;SDS011;39326;42.650;23.248;2023-02-13T05:34:15;38.93;;;30.27;;
53040;SDS011;39326;42.650;23.248;2023-02-13T05:36:41;42.67;;;32.33;;
53040;SDS011;39326;42.650;23.248;2023-02-13T05:39:07;45.23;;;32.00;;
53040;SDS011;39326;42.650;23.248;2023-02-13T05:41:33;41.87;;;28.00;;
53040;SDS011;39326;42.650;23.248;2023-02-13T05:43:58;42.97;;;32.53;;
53040;SDS011;39326;42.650;23.248;2023-02-13T05:46:24;41.33;;;28.37;;
53040;SDS011;39326;42.650;23.248;2023-02-13T05:48:50;38.40;;;28.00;;
53040;SDS011;39326;42.650;23.248;2023-02-13T05:51:17;36.00;;;24.63;;
53040;SDS011;39326;42.650;23.248;2023-02-13T05:53:43;42.80;;;31.90;;
53040;SDS011;39326;42.650;23.248;2023-02-13T05:56:10;41.57;;;29.97;;
53040;SDS011;39326;42.650;23.248;2023-02-13T05:58:35;40.90;;;30.47;;
53040;SDS011;39326;42.650;23.248;2023-02-13T06:01:01;42.43;;;30.60;;
53040;SDS011;39326;42.650;23.248;2023-02-13T06:03:28;37.07;;;27.77;;
53040;SDS011;39326;42.650;23.248;2023-02-13T06:05:55;43.10;;;31.43;;
53040;SDS011;39326;42.650;23.248;2023-02-13T06:08:21;46.80;;;32.50;;
53040;SDS011;39326;42.650;23.248;2023-02-13T06:10:48;41.37;;;30.60;;
53040;SDS011;39326;42.650;23.248;2023-02-13T06:13:14;42.10;;;30.93;;
53040;SDS011;39326;42.650;23.248;2023-02-13T06:15:41;42.90;;;34.23;;
53040;SDS011;39326;42.650;23.248;2023-02-13T06:18:06;41.10;;;30.13;;
53040;SDS011;39326;42.650;23.248;2023-02-13T06:20:32;41.37;;;29.57;;
53040;SDS011;39326;42.650;23.248;2023-02-13T06:22:58;44.57;;;32.20;;
53040;SDS011;39326;42.650;23.248;2023-02-13T06:25:24;43.60;;;32.07;;
53040;SDS011;39326;42.650;23.248;2023-02-13T06:27:50;44.07;;;31.43;;
53040;SDS011;39326;42.650;23.248;2023-02-13T06:30:16;46.87;;;33.23;;
53040;SDS011;39326;42.650;23.248;2023-02-13T06:32:42;40.77;;;29.90;;
53040;SDS011;39326;42.650;23.248;2023-02-13T06:35:10;41.40;;;30.33;;
53040;SDS011;39326;42.650;23.248;2023-02-13T06:37:36;41.70;;;30.37;;
53040;SDS011;39326;42.650;23.248;2023-02-13T06:40:02;40.23;;;29.33;;
53040;SDS011;39326;42.650;23.248;2023-02-13T06:42:28;41.67;;;32.47;;
53040;SDS011;39326;42.650;23.248;2023-02-13T06:44:53;38.50;;;29.37;;
53040;SDS011;39326;42.650;23.248;2023-02-13T06:47:19;40.90;;;30.17;;
53040;SDS011;39326;42.650;23.248;2023-02-13T06:49:45;38.80;;;28.83;;
53040;SDS011;39326;42.650;23.248;2023-02-13T06:52:11;40.60;;;30.50;;
53040;SDS011;39326;42.650;23.248;2023-02-13T06:54:36;43.23;;;31.97;;
53040;SDS011;39326;42.650;23.248;2023-02-13T06:57:02;37.73;;;27.77;;
53040;SDS011;39326;42.650;23.248;2023-02-13T06:59:27;42.53;;;28.83;;
53040;SDS011;39326;42.650;23.248;2023-02-13T07:01:53;39.97;;;28.10;;
53040;SDS011;39326;42.650;23.248;2023-02-13T07:04:19;37.77;;;28.30;;
53040;SDS011;39326;42.650;23.248;2023-02-13T07:06:44;38.17;;;27.73;;
53040;SDS011;39326;42.650;23.248;2023-02-13T07:09:10;41.60;;;29.60;;
53040;SDS011;39326;42.650;23.248;2023-02-13T07:11:37;42.47;;;31.83;;
53040;SDS011;39326;42.650;23.248;2023-02-13T07:14:05;40.97;;;31.17;;
53040;SDS011;39326;42.650;23.248;2023-02-13T07:16:31;37.73;;;29.77;;
53040;SDS011;39326;42.650;23.248;2023-02-13T07:18:58;34.83;;;27.27;;
53040;SDS011;39326;42.650;23.248;2023-02-13T07:21:24;43.03;;;31.03;;
53040;SDS011;39326;42.650;23.248;2023-02-13T07:23:50;38.40;;;26.60;;
53040;SDS011;39326;42.650;23.248;2023-02-13T07:26:16;41.50;;;30.73;;
53040;SDS011;39326;42.650;23.248;2023-02-13T07:28:41;36.50;;;28.70;;
53040;SDS011;39326;42.650;23.248;2023-02-13T07:31:07;35.77;;;27.20;;
53040;SDS011;39326;42.650;23.248;2023-02-13T07:33:33;43.07;;;31.10;;
53040;SDS011;39326;42.650;23.248;2023-02-13T07:35:59;38.73;;;27.50;;
53040;SDS011;39326;42.650;23.248;2023-02-13T07:38:27;30.53;;;19.87;;
53040;SDS011;39326;42.650;23.248;2023-02-13T07:40:59;40.20;;;29.07;;
53040;SDS011;39326;42.650;23.248;2023-02-13T07:43:25;38.37;;;26.27;;
53040;SDS011;39326;42.650;23.248;2023-02-13T07:45:51;43.20;;;29.77;;
53040;SDS011;39326;42.650;23.248;2023-02-13T07:48:22;41.30;;;30.53;;
53040;SDS011;39326;42.650;23.248;2023-02-13T07:50:51;36.27;;;28.10;;
53040;SDS011;39326;42.650;23.248;2023-02-13T07:53:17;38.17;;;27.13;;
53040;SDS011;39326;42.650;23.248;2023-02-13T07:55:42;42.20;;;31.57;;
53040;SDS011;39326;42.650;23.248;2023-02-13T07:58:08;37.60;;;29.60;;
53040;SDS011;39326;42.650;23.248;2023-02-13T08:00:33;40.17;;;30.83;;
53040;SDS011;39326;42.650;23.248;2023-02-13T08:02:59;38.27;;;29.47;;
53040;SDS011;39326;42.650;23.248;2023-02-13T08:05:26;55.97;;;42.07;;
53040;SDS011;39326;42.650;23.248;2023-02-13T08:07:52;43.10;;;33.27;;
53040;SDS011;39326;42.650;23.248;2023-02-13T08:10:18;38.20;;;29.87;;
53040;SDS011;39326;42.650;23.248;2023-02-13T08:13:03;43.90;;;33.23;;
53040;SDS011;39326;42.650;23.248;2023-02-13T08:15:29;45.80;;;35.27;;
53040;SDS011;39326;42.650;23.248;2023-02-13T08:17:55;41.60;;;33.33;;
53040;SDS011;39326;42.650;23.248;2023-02-13T08:20:20;61.23;;;41.70;;
53040;SDS011;39326;42.650;23.248;2023-02-13T08:22:48;45.70;;;34.40;;
53040;SDS011;39326;42.650;23.248;2023-02-13T08:25:13;37.30;;;29.03;;
53040;SDS011;39326;42.650;23.248;2023-02-13T08:27:40;41.07;;;31.17;;
53040;SDS011;39326;42.650;23.248;2023-02-13T08:30:06;41.43;;;31.53;;
53040;SDS011;39326;42.650;23.248;2023-02-13T08:32:33;42.13;;;32.67;;
53040;SDS011;39326;42.650;23.248;2023-02-13T08:34:58;37.67;;;27.63;;
53040;SDS011;39326;42.650;23.248;2023-02-13T08:37:24;36.33;;;24.13;;
53040;SDS011;39326;42.650;23.248;2023-02-13T08:39:49;38.03;;;30.97;;
53040;SDS011;39326;42.650;23.248;2023-02-13T08:42:15;39.97;;;30.33;;
53040;SDS011;39326;42.650;23.248;2023-02-13T08:44:41;37.97;;;27.73;;
53040;SDS011;39326;42.650;23.248;2023-02-13T08:47:07;35.00;;;26.10;;
53040;SDS011;39326;42.650;23.248;2023-02-13T08:49:33;35.27;;;28.83;;
53040;SDS011;39326;42.650;23.248;2023-02-13T08:51:59;38.47;;;28.53;;
53040;SDS011;39326;42.650;23.248;2023-02-13T08:54:26;37.67;;;29.60;;
53040;SDS011;39326;42.650;23.248;2023-02-13T08:56:52;39.80;;;32.43;;
53040;SDS011;39326;42.650;23.248;2023-02-13T08:59:19;39.27;;;31.23;;
53040;SDS011;39326;42.650;23.248;2023-02-13T09:01:45;37.07;;;29.13;;
53040;SDS011;39326;42.650;23.248;2023-02-13T09:04:11;40.17;;;28.37;;
53040;SDS011;39326;42.650;23.248;2023-02-13T09:06:39;39.37;;;30.40;;
53040;SDS011;39326;42.650;23.248;2023-02-13T09:09:05;35.60;;;28.70;;
53040;SDS011;39326;42.650;23.248;2023-02-13T09:11:31;35.33;;;27.17;;
53040;SDS011;39326;42.650;23.248;2023-02-13T09:13:56;35.50;;;29.50;;
53040;SDS011;39326;42.650;23.248;2023-02-13T09:16:22;36.90;;;28.80;;
53040;SDS011;39326;42.650;23.248;2023-02-13T09:18:48;34.90;;;27.43;;
53040;SDS011;39326;42.650;23.248;2023-02-13T09:21:15;34.53;;;26.67;;
53040;SDS011;39326;42.650;23.248;2023-02-13T09:23:41;37.90;;;28.70;;
53040;SDS011;39326;42.650;23.248;2023-02-13T09:26:09;31.77;;;26.03;;
53040;SDS011;39326;42.650;23.248;2023-02-13T09:28:36;32.67;;;24.97;;
53040;SDS011;39326;42.650;23.248;2023-02-13T09:31:06;32.50;;;25.70;;
53040;SDS011;39326;42.650;23.248;2023-02-13T09:33:33;33.50;;;27.83;;
53040;SDS011;39326;42.650;23.248;2023-02-13T09:36:03;30.97;;;26.73;;
53040;SDS011;39326;42.650;23.248;2023-02-13T09:38:30;30.83;;;24.50;;
53040;SDS011;39326;42.650;23.248;2023-02-13T09:40:57;33.53;;;26.90;;
53040;SDS011;39326;42.650;23.248;2023-02-13T09:43:31;33.77;;;26.40;;
53040;SDS011;39326;42.650;23.248;2023-02-13T09:46:03;32.03;;;23.27;;
53040;SDS011;39326;42.650;23.248;2023-02-13T09:48:36;33.37;;;27.33;;
53040;SDS011;39326;42.650;23.248;2023-02-13T09:51:04;35.67;;;28.40;;
53040;SDS011;39326;42.650;23.248;2023-02-13T09:53:30;34.00;;;28.10;;
53040;SDS011;39326;42.650;23.248;2023-02-13T09:56:09;33.23;;;24.70;;
53040;SDS011;39326;42.650;23.248;2023-02-13T10:01:19;34.10;;;28.90;;
53040;SDS011;39326;42.650;23.248;2023-02-13T10:10:00;31.07;;;26.13;;
53040;SDS011;39326;42.650;23.248;2023-02-13T10:18:21;32.57;;;29.03;;
53040;SDS011;39326;42.650;23.248;2023-02-13T10:20:56;31.27;;;27.07;;
53040;SDS011;39326;42.650;23.248;2023-02-13T10:26:39;34.17;;;30.50;;
53040;SDS011;39326;42.650;23.248;2023-02-13T10:29:08;30.47;;;26.73;;
53040;SDS011;39326;42.650;23.248;2023-02-13T10:31:58;32.20;;;28.57;;
53040;SDS011;39326;42.650;23.248;2023-02-13T10:34:29;32.87;;;29.37;;
53040;SDS011;39326;42.650;23.248;2023-02-13T10:36:58;33.00;;;29.50;;
53040;SDS011;39326;42.650;23.248;2023-02-13T10:39:28;30.97;;;27.63;;
53040;SDS011;39326;42.650;23.248;2023-02-13T10:44:30;28.07;;;25.23;;
53040;SDS011;39326;42.650;23.248;2023-02-13T10:47:13;29.80;;;26.70;;
53040;SDS011;39326;42.650;23.248;2023-02-13T10:52:49;29.53;;;25.80;;
53040;SDS011;39326;42.650;23.248;2023-02-13T11:00:35;28.10;;;23.03;;
53040;SDS011;39326;42.650;23.248;2023-02-13T11:03:22;29.73;;;26.50;;
53040;SDS011;39326;42.650;23.248;2023-02-13T11:05:49;28.47;;;25.47;;
53040;SDS011;39326;42.650;23.248;2023-02-13T11:10:47;26.70;;;23.80;;
53040;SDS011;39326;42.650;23.248;2023-02-13T11:13:20;27.90;;;25.00;;
53040;SDS011;39326;42.650;23.248;2023-02-13T11:18:28;28.20;;;25.40;;
53040;SDS011;39326;42.650;23.248;2023-02-13T11:21:08;25.83;;;23.23;;
53040;SDS011;39326;42.650;23.248;2023-02-13T11:23:49;24.80;;;22.30;;
53040;SDS011;39326;42.650;23.248;2023-02-13T11:26:23;25.13;;;22.67;;
53040;SDS011;39326;42.650;23.248;2023-02-13T11:28:52;25.57;;;22.87;;
53040;SDS011;39326;42.650;23.248;2023-02-13T11:33:51;22.03;;;19.83;;
53040;SDS011;39326;42.650;23.248;2023-02-13T11:36:24;25.90;;;23.23;;
53040;SDS011;39326;42.650;23.248;2023-02-13T11:41:24;24.87;;;22.27;;
53040;SDS011;39326;42.650;23.248;2023-02-13T11:43:53;22.47;;;20.07;;
53040;SDS011;39326;42.650;23.248;2023-02-13T11:46:25;24.47;;;21.87;;
53040;SDS011;39326;42.650;23.248;2023-02-13T11:49:11;24.83;;;21.37;;
53040;SDS011;39326;42.650;23.248;2023-02-13T11:51:47;23.70;;;21.20;;
53040;SDS011;39326;42.650;23.248;2023-02-13T11:57:16;24.83;;;22.23;;
53040;SDS011;39326;42.650;23.248;2023-02-13T11:59:44;22.87;;;20.53;;
53040;SDS011;39326;42.650;23.248;2023-02-13T12:02:16;22.07;;;19.30;;
53040;SDS011;39326;42.650;23.248;2023-02-13T12:04:44;21.87;;;19.13;;
53040;SDS011;39326;42.650;23.248;2023-02-13T12:07:28;22.53;;;20.23;;
53040;SDS011;39326;42.650;23.248;2023-02-13T12:10:04;23.23;;;20.73;;
53040;SDS011;39326;42.650;23.248;2023-02-13T12:12:49;22.87;;;20.47;;
53040;SDS011;39326;42.650;23.248;2023-02-13T12:15:22;27.33;;;24.33;;
53040;SDS011;39326;42.650;23.248;2023-02-13T12:18:00;28.63;;;25.73;;
53040;SDS011;39326;42.650;23.248;2023-02-13T12:20:34;29.07;;;26.17;;
53040;SDS011;39326;42.650;23.248;2023-02-13T12:23:57;26.80;;;23.97;;
53040;SDS011;39326;42.650;23.248;2023-02-13T12:26:37;24.63;;;21.37;;
53040;SDS011;39326;42.650;23.248;2023-02-13T12:37:34;23.97;;;21.37;;
53040;SDS011;39326;42.650;23.248;2023-02-13T12:45:44;17.83;;;14.93;;
53040;SDS011;39326;42.650;23.248;2023-02-13T13:20:21;20.47;;;15.87;;
53040;SDS011;39326;42.650;23.248;2023-02-13T13:28:36;17.87;;;15.83;;
53040;SDS011;39326;42.650;23.248;2023-02-13T13:31:05;18.60;;;16.70;;
53040;SDS011;39326;42.650;23.248;2023-02-13T13:33:32;17.17;;;15.33;;
53040;SDS011;39326;42.650;23.248;2023-02-13T13:36:13;19.57;;;17.57;;
53040;SDS011;39326;42.650;23.248;2023-02-13T13:42:01;19.47;;;17.37;;
53040;SDS011;39326;42.650;23.248;2023-02-13T13:45:29;19.10;;;17.03;;
53040;SDS011;39326;42.650;23.248;2023-02-13T13:50:02;19.90;;;17.40;;
53040;SDS011;39326;42.650;23.248;2023-02-13T13:52:31;17.67;;;15.43;;
53040;SDS011;39326;42.650;23.248;2023-02-13T13:54:59;22.13;;;19.13;;
53040;SDS011;39326;42.650;23.248;2023-02-13T14:00:21;24.07;;;20.37;;
53040;SDS011;39326;42.650;23.248;2023-02-13T14:07:58;21.87;;;18.07;;
53040;SDS011;39326;42.650;23.248;2023-02-13T14:23:36;66.60;;;48.37;;
53040;SDS011;39326;42.650;23.248;2023-02-13T14:28:53;26.27;;;22.10;;
53040;SDS011;39326;42.650;23.248;2023-02-13T14:31:26;25.47;;;19.73;;
53040;SDS011;39326;42.650;23.248;2023-02-13T14:36:30;19.60;;;16.40;;
53040;SDS011;39326;42.650;23.248;2023-02-13T14:38:59;23.07;;;20.67;;
53040;SDS011;39326;42.650;23.248;2023-02-13T14:46:46;18.50;;;16.40;;
53040;SDS011;39326;42.650;23.248;2023-02-13T14:49:16;19.90;;;17.87;;
53040;SDS011;39326;42.650;23.248;2023-02-13T14:51:47;37.97;;;27.97;;
53040;SDS011;39326;42.650;23.248;2023-02-13T14:56:55;50.07;;;36.53;;
53040;SDS011;39326;42.650;23.248;2023-02-13T14:59:40;20.93;;;17.53;;
53040;SDS011;39326;42.650;23.248;2023-02-13T15:05:03;18.00;;;16.10;;
53040;SDS011;39326;42.650;23.248;2023-02-13T15:07:45;17.90;;;14.87;;
53040;SDS011;39326;42.650;23.248;2023-02-13T15:10:27;17.30;;;15.50;;
53040;SDS011;39326;42.650;23.248;2023-02-13T15:12:59;16.50;;;14.77;;
53040;SDS011;39326;42.650;23.248;2023-02-13T15:15:27;18.80;;;16.87;;
53040;SDS011;39326;42.650;23.248;2023-02-13T15:17:58;18.27;;;16.37;;
53040;SDS011;39326;42.650;23.248;2023-02-13T15:20:27;19.97;;;17.93;;
53040;SDS011;39326;42.650;23.248;2023-02-13T15:22:56;17.53;;;15.70;;
53040;SDS011;39326;42.650;23.248;2023-02-13T15:25:24;25.53;;;22.87;;
53040;SDS011;39326;42.650;23.248;2023-02-13T15:27:56;23.07;;;20.47;;
53040;SDS011;39326;42.650;23.248;2023-02-13T15:30:36;23.87;;;21.40;;
53040;SDS011;39326;42.650;23.248;2023-02-13T15:33:15;20.10;;;18.10;;
53040;SDS011;39326;42.650;23.248;2023-02-13T15:35:43;21.13;;;18.87;;
53040;SDS011;39326;42.650;23.248;2023-02-13T15:38:19;21.30;;;19.10;;
53040;SDS011;39326;42.650;23.248;2023-02-13T15:40:48;20.23;;;17.93;;
53040;SDS011;39326;42.650;23.248;2023-02-13T15:43:22;18.90;;;16.90;;
53040;SDS011;39326;42.650;23.248;2023-02-13T15:45:55;21.60;;;17.43;;
53040;SDS011;39326;42.650;23.248;2023-02-13T15:48:24;18.80;;;16.33;;
53040;SDS011;39326;42.650;23.248;2023-02-13T15:50:49;18.30;;;16.40;;
53040;SDS011;39326;42.650;23.248;2023-02-13T15:53:15;18.80;;;16.80;;
53040;SDS011;39326;42.650;23.248;2023-02-13T15:55:50;18.87;;;16.87;;
53040;SDS011;39326;42.650;23.248;2023-02-13T15:58:24;17.90;;;16.00;;
53040;SDS011;39326;42.650;23.248;2023-02-13T16:00:54;19.40;;;17.30;;
53040;SDS011;39326;42.650;23.248;2023-02-13T16:03:20;18.63;;;16.67;;
53040;SDS011;39326;42.650;23.248;2023-02-13T16:05:50;18.07;;;16.17;;
53040;SDS011;39326;42.650;23.248;2023-02-13T16:08:24;18.17;;;16.27;;
53040;SDS011;39326;42.650;23.248;2023-02-13T16:14:36;18.47;;;15.60;;
53040;SDS011;39326;42.650;23.248;2023-02-13T16:16:45;16.73;;;14.93;;
53040;SDS011;39326;42.650;23.248;2023-02-13T16:19:47;16.20;;;14.50;;
53040;SDS011;39326;42.650;23.248;2023-02-13T16:22:42;18.20;;;16.07;;
53040;SDS011;39326;42.650;23.248;2023-02-13T16:25:47;19.53;;;16.20;;
53040;SDS011;39326;42.650;23.248;2023-02-13T16:27:56;19.37;;;17.10;;
53040;SDS011;39326;42.650;23.248;2023-02-13T16:32:49;19.63;;;16.50;;
53040;SDS011;39326;42.650;23.248;2023-02-13T16:35:16;19.23;;;17.20;;
53040;SDS011;39326;42.650;23.248;2023-02-13T16:37:51;18.80;;;16.90;;
53040;SDS011;39326;42.650;23.248;2023-02-13T16:42:51;18.57;;;15.63;;
53040;SDS011;39326;42.650;23.248;2023-02-13T16:45:21;20.50;;;18.30;;
53040;SDS011;39326;42.650;23.248;2023-02-13T16:47:47;21.63;;;19.33;;
53040;SDS011;39326;42.650;23.248;2023-02-13T16:50:22;21.40;;;19.07;;
53040;SDS011;39326;42.650;23.248;2023-02-13T16:52:48;22.40;;;18.57;;
53040;SDS011;39326;42.650;23.248;2023-02-13T16:55:14;21.83;;;19.60;;
53040;SDS011;39326;42.650;23.248;2023-02-13T16:57:40;21.17;;;18.87;;
53040;SDS011;39326;42.650;23.248;2023-02-13T17:02:45;22.67;;;19.20;;
53040;SDS011;39326;42.650;23.248;2023-02-13T17:07:47;24.20;;;19.47;;
53040;SDS011;39326;42.650;23.248;2023-02-13T17:13:00;22.97;;;19.97;;
53040;SDS011;39326;42.650;23.248;2023-02-13T17:15:35;21.43;;;17.90;;
53040;SDS011;39326;42.650;23.248;2023-02-13T17:18:02;21.17;;;18.20;;
53040;SDS011;39326;42.650;23.248;2023-02-13T17:20:29;22.07;;;19.53;;
53040;SDS011;39326;42.650;23.248;2023-02-13T17:22:57;20.87;;;18.57;;
53040;SDS011;39326;42.650;23.248;2023-02-13T17:25:28;21.77;;;19.30;;
53040;SDS011;39326;42.650;23.248;2023-02-13T17:27:54;21.33;;;19.07;;
53040;SDS011;39326;42.650;23.248;2023-02-13T17:30:25;22.60;;;19.83;;
53040;SDS011;39326;42.650;23.248;2023-02-13T17:32:55;24.83;;;21.13;;
53040;SDS011;39326;42.650;23.248;2023-02-13T17:35:23;22.50;;;20.20;;
53040;SDS011;39326;42.650;23.248;2023-02-13T17:37:49;22.47;;;18.97;;
53040;SDS011;39326;42.650;23.248;2023-02-13T17:40:15;22.97;;;20.43;;
53040;SDS011;39326;42.650;23.248;2023-02-13T17:42:43;21.27;;;19.00;;
53040;SDS011;39326;42.650;23.248;2023-02-13T17:45:14;21.10;;;19.00;;
53040;SDS011;39326;42.650;23.248;2023-02-13T17:47:41;23.70;;;20.37;;